createdAt,value
2022-09-15T00:02:25.908Z,19.52
2022-09-15T00:04:52.455Z,19.47
2022-09-15T00:07:18.963Z,19.52
2022-09-15T00:09:45.454Z,19.53
2022-09-15T00:12:11.942Z,19.46
2022-09-15T00:14:38.575Z,19.57
2022-09-15T00:17:05.297Z,19.56
2022-09-15T00:19:31.854Z,19.59
2022-09-15T00:21:58.321Z,19.59
2022-09-15T00:24:24.870Z,19.58
2022-09-15T00:26:51.335Z,19.58
2022-09-15T00:29:17.833Z,19.55
2022-09-15T00:31:44.320Z,19.56
2022-09-15T00:34:13.346Z,19.55
2022-09-15T00:36:40.265Z,19.54
2022-09-15T00:39:06.829Z,19.53
2022-09-15T00:41:33.639Z,19.54
2022-09-15T00:44:16.796Z,19.50
2022-09-15T00:46:58.715Z,19.54
2022-09-15T00:49:34.755Z,19.55
2022-09-15T00:52:15.746Z,19.53
2022-09-15T00:54:52.288Z,19.43
2022-09-15T00:57:27.866Z,19.56
2022-09-15T00:59:57.062Z,19.60
2022-09-15T01:02:27.974Z,19.54
2022-09-15T01:04:58.501Z,19.61
2022-09-15T01:07:32.179Z,19.59
2022-09-15T01:10:11.723Z,19.53
2022-09-15T01:12:40.217Z,19.59
2022-09-15T01:15:07.178Z,19.61
2022-09-15T01:18:04.187Z,19.57
2022-09-15T01:20:54.759Z,19.57
2022-09-15T01:23:48.727Z,19.57
2022-09-15T01:26:15.124Z,19.55
2022-09-15T01:29:20.447Z,19.57
2022-09-15T01:32:19.108Z,19.49
2022-09-15T01:35:01.627Z,19.49
2022-09-15T01:37:33.489Z,19.51
2022-09-15T01:40:01.593Z,19.57
2022-09-15T01:42:30.507Z,19.55
2022-09-15T01:45:15.234Z,19.54
2022-09-15T01:47:41.942Z,19.53
2022-09-15T01:50:08.800Z,19.54
2022-09-15T01:52:36.405Z,19.49
2022-09-15T01:55:10.951Z,19.49
2022-09-15T01:57:37.456Z,19.47
2022-09-15T02:00:05.366Z,19.47
2022-09-15T02:02:37.827Z,19.44
2022-09-15T02:05:19.763Z,19.43
2022-09-15T02:08:05.047Z,19.41
2022-09-15T02:10:43.855Z,19.42
2022-09-15T02:13:18.773Z,19.42
2022-09-15T02:15:51.530Z,19.41
2022-09-15T02:18:25.426Z,19.37
2022-09-15T02:21:00.753Z,19.40
2022-09-15T02:23:31.404Z,19.32
2022-09-15T02:26:04.982Z,19.38
2022-09-15T02:28:35.976Z,19.41
2022-09-15T02:31:07.070Z,19.38
2022-09-15T02:33:39.159Z,19.37
2022-09-15T02:36:06.992Z,19.34
2022-09-15T02:38:37.271Z,19.30
2022-09-15T02:41:03.857Z,19.29
2022-09-15T02:43:31.266Z,19.27
2022-09-15T02:45:58.058Z,19.24
2022-09-15T02:48:25.307Z,19.19
2022-09-15T02:50:52.029Z,19.20
2022-09-15T02:53:18.517Z,19.19
2022-09-15T02:55:45.007Z,19.14
2022-09-15T02:58:11.478Z,19.12
2022-09-15T03:00:39.143Z,19.08
2022-09-15T03:03:05.638Z,19.06
2022-09-15T03:05:32.106Z,19.03
2022-09-15T03:07:58.618Z,18.99
2022-09-15T03:10:26.023Z,18.97
2022-09-15T03:12:54.460Z,18.98
2022-09-15T03:15:24.121Z,19.00
2022-09-15T03:17:51.731Z,18.95
2022-09-15T03:20:21.482Z,19.02
2022-09-15T03:22:49.570Z,18.97
2022-09-15T03:25:17.678Z,18.96
2022-09-15T03:27:44.410Z,18.96
2022-09-15T03:30:11.979Z,18.89
2022-09-15T03:32:38.583Z,18.82
2022-09-15T03:35:06.994Z,18.85
2022-09-15T03:37:33.855Z,18.78
2022-09-15T03:40:00.423Z,18.83
2022-09-15T03:42:27.170Z,18.82
2022-09-15T03:44:53.699Z,18.81
2022-09-15T03:47:20.233Z,18.78
2022-09-15T03:49:46.693Z,18.75
2022-09-15T03:52:13.231Z,18.78
2022-09-15T03:54:40.090Z,18.78
2022-09-15T03:57:06.677Z,18.79
2022-09-15T03:59:33.312Z,18.76
2022-09-15T04:01:59.847Z,18.40
2022-09-15T04:04:26.550Z,18.75
2022-09-15T04:06:53.210Z,18.77
2022-09-15T04:09:21.081Z,18.79
2022-09-15T04:11:47.829Z,18.80
2022-09-15T04:14:14.498Z,18.83
2022-09-15T04:16:41.139Z,18.89
2022-09-15T04:19:07.758Z,18.87
2022-09-15T04:21:34.707Z,18.76
2022-09-15T04:24:01.437Z,18.82
2022-09-15T04:26:31.661Z,18.91
2022-09-15T04:29:03.619Z,18.80
2022-09-15T04:31:31.038Z,18.90
2022-09-15T04:33:57.733Z,18.84
2022-09-15T04:36:26.861Z,18.91
2022-09-15T04:38:53.376Z,18.91
2022-09-15T04:41:20.869Z,18.93
2022-09-15T04:43:47.404Z,18.84
2022-09-15T04:46:15.097Z,18.91
2022-09-15T04:48:42.337Z,18.83
2022-09-15T04:51:12.868Z,18.94
2022-09-15T04:53:39.603Z,18.93
2022-09-15T04:56:08.765Z,18.93
2022-09-15T04:58:40.526Z,18.86
2022-09-15T05:01:09.252Z,18.96
2022-09-15T05:03:37.638Z,18.96
2022-09-15T05:06:05.997Z,18.96
2022-09-15T05:08:32.533Z,18.95
2022-09-15T05:11:01.297Z,18.95
2022-09-15T05:13:27.925Z,18.97
2022-09-15T05:15:54.518Z,18.97
2022-09-15T05:18:21.144Z,18.99
2022-09-15T05:20:47.643Z,18.98
2022-09-15T05:23:14.092Z,19.00
2022-09-15T05:25:40.535Z,19.02
2022-09-15T05:28:07.713Z,19.00
2022-09-15T05:30:41.440Z,19.01
2022-09-15T05:33:10.156Z,19.02
2022-09-15T05:35:36.627Z,19.04
2022-09-15T05:38:03.489Z,19.03
2022-09-15T05:40:30.000Z,19.07
2022-09-15T05:42:56.499Z,19.09
2022-09-15T05:45:22.983Z,19.06
2022-09-15T05:47:49.594Z,19.20
2022-09-15T05:50:16.277Z,19.28
2022-09-15T05:52:43.042Z,19.31
2022-09-15T05:55:10.059Z,19.28
2022-09-15T05:57:36.503Z,19.36
2022-09-15T06:00:04.726Z,19.36
2022-09-15T06:02:38.469Z,19.41
2022-09-15T06:05:05.374Z,19.44
2022-09-15T06:07:31.811Z,19.49
2022-09-15T06:09:58.337Z,19.54
2022-09-15T06:12:24.824Z,19.54
2022-09-15T06:14:52.839Z,19.54
2022-09-15T06:17:20.698Z,19.52
2022-09-15T06:19:47.152Z,19.52
2022-09-15T06:22:13.601Z,19.50
2022-09-15T06:24:40.135Z,19.54
2022-09-15T06:27:07.738Z,19.54
2022-09-15T06:29:34.362Z,19.55
2022-09-15T06:32:02.820Z,19.56
2022-09-15T06:34:29.783Z,19.57
2022-09-15T06:36:56.242Z,19.58
2022-09-15T06:39:22.921Z,19.59
2022-09-15T06:42:02.184Z,19.62
2022-09-15T06:44:29.208Z,19.74
2022-09-15T06:46:55.668Z,19.88
2022-09-15T06:49:22.295Z,20.08
2022-09-15T06:51:51.662Z,20.17
2022-09-15T06:54:18.188Z,20.51
2022-09-15T06:56:44.955Z,20.54
2022-09-15T06:59:12.727Z,20.48
2022-09-15T07:01:39.501Z,20.42
2022-09-15T07:04:08.895Z,20.36
2022-09-15T07:06:37.479Z,20.29
2022-09-15T07:09:05.451Z,20.22
2022-09-15T07:11:33.105Z,20.17
2022-09-15T07:13:59.659Z,20.17
2022-09-15T07:16:26.371Z,20.15
2022-09-15T07:18:55.950Z,20.17
2022-09-15T07:21:23.292Z,20.19
2022-09-15T07:23:49.826Z,20.25
2022-09-15T07:26:19.497Z,20.28
2022-09-15T07:28:53.573Z,20.36
2022-09-15T07:31:22.244Z,20.43
2022-09-15T07:33:49.307Z,20.59
2022-09-15T07:36:16.519Z,20.70
2022-09-15T07:38:50.781Z,20.77
2022-09-15T07:41:23.193Z,20.62
2022-09-15T07:43:51.744Z,20.87
2022-09-15T07:46:19.251Z,20.86
2022-09-15T07:48:48.150Z,20.91
2022-09-15T07:51:15.936Z,20.93
2022-09-15T07:53:44.382Z,20.99
2022-09-15T07:56:11.517Z,21.01
2022-09-15T07:58:38.041Z,20.95
2022-09-15T08:01:06.576Z,20.96
2022-09-15T08:03:33.456Z,20.88
2022-09-15T08:06:02.110Z,21.06
2022-09-15T08:08:29.569Z,21.12
2022-09-15T08:10:56.305Z,21.17
2022-09-15T08:13:23.111Z,21.29
2022-09-15T08:15:49.863Z,21.40
2022-09-15T08:18:16.608Z,21.49
2022-09-15T08:20:44.006Z,21.68
2022-09-15T08:23:11.591Z,21.73
2022-09-15T08:25:39.461Z,21.83
2022-09-15T08:28:06.068Z,21.95
2022-09-15T08:30:32.631Z,22.15
2022-09-15T08:32:59.119Z,22.38
2022-09-15T08:35:25.648Z,22.50
2022-09-15T08:37:54.127Z,22.65
2022-09-15T08:40:23.481Z,22.75
2022-09-15T08:42:53.749Z,23.21
2022-09-15T08:45:25.540Z,23.77
2022-09-15T08:47:58.599Z,24.52
2022-09-15T08:50:34.002Z,25.18
2022-09-15T08:53:09.639Z,25.50
2022-09-15T08:55:53.743Z,25.30
2022-09-15T08:58:22.745Z,25.20
2022-09-15T09:00:52.081Z,25.54
2022-09-15T09:03:38.415Z,26.00
2022-09-15T09:06:23.432Z,26.35
2022-09-15T09:09:02.522Z,26.60
2022-09-15T09:11:28.959Z,26.57
2022-09-15T09:14:05.935Z,26.36
2022-09-15T09:16:52.762Z,26.09
2022-09-15T09:19:46.368Z,26.18
2022-09-15T09:22:20.354Z,26.37
2022-09-15T09:24:50.398Z,26.31
2022-09-15T09:27:20.488Z,26.05
2022-09-15T09:30:14.280Z,25.64
2022-09-15T09:32:50.274Z,25.20
2022-09-15T09:35:47.154Z,24.95
2022-09-15T09:38:21.518Z,24.69
2022-09-15T09:40:49.412Z,24.63
2022-09-15T09:43:16.023Z,24.65
2022-09-15T09:45:42.836Z,24.62
2022-09-15T09:48:18.654Z,24.56
2022-09-15T09:50:45.283Z,24.46
2022-09-15T09:53:29.046Z,24.18
2022-09-15T09:56:16.038Z,24.01
2022-09-15T09:58:43.367Z,23.97
2022-09-15T10:01:18.602Z,23.94
2022-09-15T10:03:45.421Z,23.91
2022-09-15T10:06:15.670Z,23.87
2022-09-15T10:09:18.366Z,23.77
2022-09-15T10:11:48.556Z,23.78
2022-09-15T10:14:37.371Z,23.80
2022-09-15T10:17:09.891Z,23.98
2022-09-15T10:19:46.711Z,24.20
2022-09-15T10:22:35.785Z,24.39
2022-09-15T10:25:39.562Z,24.46
2022-09-15T10:28:16.899Z,24.68
2022-09-15T10:31:06.499Z,24.89
2022-09-15T10:33:35.493Z,24.87
2022-09-15T10:36:06.098Z,24.70
2022-09-15T10:38:48.689Z,24.44
2022-09-15T10:41:32.234Z,24.19
2022-09-15T10:44:02.059Z,23.98
2022-09-15T10:46:41.022Z,23.97
2022-09-15T10:49:44.578Z,23.76
2022-09-15T10:52:32.923Z,23.70
2022-09-15T10:55:15.144Z,23.55
2022-09-15T10:57:59.717Z,23.50
2022-09-15T11:00:34.059Z,23.47
2022-09-15T11:03:38.761Z,23.45
2022-09-15T11:06:36.534Z,23.36
2022-09-15T11:09:21.599Z,23.32
2022-09-15T11:12:09.319Z,23.28
2022-09-15T11:14:48.809Z,23.36
2022-09-15T11:17:24.062Z,23.40
2022-09-15T11:20:03.167Z,23.39
2022-09-15T11:22:51.859Z,23.38
2022-09-15T11:25:25.345Z,23.36
2022-09-15T11:28:06.637Z,23.38
2022-09-15T11:30:42.449Z,23.43
2022-09-15T11:33:32.786Z,23.55
2022-09-15T11:36:13.141Z,23.62
2022-09-15T11:38:52.898Z,23.82
2022-09-15T11:41:26.542Z,23.88
2022-09-15T11:44:17.055Z,23.80
2022-09-15T11:46:58.785Z,23.61
2022-09-15T11:49:40.630Z,23.49
2022-09-15T11:52:32.613Z,23.39
2022-09-15T11:55:16.927Z,23.27
2022-09-15T11:57:54.243Z,23.08
2022-09-15T12:00:21.437Z,22.82
2022-09-15T12:03:00.245Z,22.66
2022-09-15T12:05:34.608Z,22.61
2022-09-15T12:08:10.117Z,22.56
2022-09-15T12:10:45.970Z,22.60
2022-09-15T12:13:20.956Z,22.65
2022-09-15T12:15:48.819Z,22.67
2022-09-15T12:18:44.863Z,22.75
2022-09-15T12:21:19.650Z,22.76
2022-09-15T12:23:54.691Z,22.67
2022-09-15T12:26:23.347Z,22.50
2022-09-15T12:29:30.205Z,22.21
2022-09-15T12:32:21.581Z,22.08
2022-09-15T12:35:01.868Z,22.01
2022-09-15T12:38:03.915Z,21.99
2022-09-15T12:40:30.451Z,22.02
2022-09-15T12:42:57.608Z,22.09
2022-09-15T12:45:36.209Z,22.20
2022-09-15T12:48:10.642Z,22.31
2022-09-15T12:50:40.953Z,22.39
2022-09-15T12:53:18.356Z,22.54
2022-09-15T12:55:52.403Z,22.87
2022-09-15T12:58:47.832Z,23.18
2022-09-15T13:01:26.415Z,23.57
2022-09-15T13:03:57.765Z,23.84
2022-09-15T13:06:26.658Z,24.05
2022-09-15T13:09:02.342Z,24.19
2022-09-15T13:11:40.098Z,24.43
2022-09-15T13:14:14.695Z,24.63
2022-09-15T13:16:41.155Z,24.84
2022-09-15T13:19:16.420Z,24.80
2022-09-15T13:22:03.309Z,24.63
2022-09-15T13:24:42.116Z,24.52
2022-09-15T13:27:09.151Z,24.26
2022-09-15T13:29:48.149Z,23.85
2022-09-15T13:32:32.956Z,23.40
2022-09-15T13:35:19.820Z,23.11
2022-09-15T13:38:17.105Z,22.80
2022-09-15T13:41:18.422Z,22.48
2022-09-15T13:44:06.841Z,22.12
2022-09-15T13:46:36.290Z,21.87
2022-09-15T13:49:18.189Z,21.64
2022-09-15T13:51:54.703Z,21.30
2022-09-15T13:54:21.342Z,21.12
2022-09-15T13:56:49.101Z,20.92
2022-09-15T13:59:24.901Z,20.61
2022-09-15T14:01:52.999Z,20.29
2022-09-15T14:04:24.375Z,20.08
2022-09-15T14:06:57.183Z,19.98
2022-09-15T14:09:33.336Z,19.98
2022-09-15T14:12:03.876Z,19.75
2022-09-15T14:14:53.773Z,19.70
2022-09-15T14:17:23.995Z,19.61
2022-09-15T14:19:53.449Z,19.61
2022-09-15T14:22:26.286Z,19.66
2022-09-15T14:24:54.064Z,19.73
2022-09-15T14:27:32.865Z,19.81
2022-09-15T14:30:04.334Z,19.95
2022-09-15T14:32:34.427Z,19.88
2022-09-15T14:35:05.570Z,19.90
2022-09-15T14:37:32.607Z,19.88
2022-09-15T14:40:01.561Z,19.74
2022-09-15T14:42:32.416Z,19.71
2022-09-15T14:48:01.579Z,19.49
2022-09-15T14:50:32.843Z,19.13
2022-09-15T14:53:06.589Z,18.58
2022-09-15T14:55:36.055Z,18.35
2022-09-15T14:58:15.107Z,17.99
2022-09-15T15:00:49.122Z,17.72
2022-09-15T15:03:27.540Z,17.49
2022-09-15T15:06:28.349Z,17.54
2022-09-15T15:09:06.439Z,17.45
2022-09-15T15:11:34.916Z,17.45
2022-09-15T15:14:05.759Z,17.63
2022-09-15T15:16:32.818Z,17.62
2022-09-15T15:18:59.717Z,17.56
2022-09-15T15:21:38.879Z,17.64
2022-09-15T15:24:20.299Z,17.65
2022-09-15T15:26:49.753Z,17.66
2022-09-15T15:29:47.016Z,17.51
2022-09-15T15:32:16.313Z,17.42
2022-09-15T15:34:57.997Z,17.45
2022-09-15T15:37:29.791Z,17.41
2022-09-15T15:39:58.233Z,17.31
2022-09-15T15:42:26.184Z,17.33
2022-09-15T15:44:59.818Z,17.38
2022-09-15T15:47:30.562Z,17.36
2022-09-15T15:50:13.408Z,17.38
2022-09-15T15:52:41.559Z,17.37
2022-09-15T15:55:08.661Z,17.35
2022-09-15T15:57:38.266Z,17.28
2022-09-15T16:00:20.435Z,17.25
2022-09-15T16:02:48.069Z,17.25
2022-09-15T16:05:14.683Z,17.33
2022-09-15T16:07:44.103Z,17.31
2022-09-15T16:10:16.086Z,17.51
2022-09-15T16:12:42.951Z,17.47
2022-09-15T16:15:14.129Z,17.51
2022-09-15T16:17:46.033Z,17.48
2022-09-15T16:20:15.931Z,17.42
2022-09-15T16:22:43.325Z,17.39
2022-09-15T16:25:15.526Z,17.39
2022-09-15T16:27:41.991Z,17.44
2022-09-15T16:30:11.995Z,17.46
2022-09-15T16:32:40.086Z,17.45
2022-09-15T16:35:26.979Z,17.37
2022-09-15T16:37:53.703Z,17.41
2022-09-15T16:40:20.256Z,17.39
2022-09-15T16:42:47.934Z,17.40
2022-09-15T16:45:30.792Z,17.41
2022-09-15T16:47:58.818Z,17.32
2022-09-15T16:50:25.822Z,17.18
2022-09-15T16:52:52.931Z,17.23
2022-09-15T16:55:29.556Z,17.19
2022-09-15T16:57:56.162Z,17.16
2022-09-15T17:00:22.772Z,17.16
2022-09-15T17:02:49.640Z,17.13
2022-09-15T17:05:27.991Z,17.11
2022-09-15T17:07:55.006Z,17.09
2022-09-15T17:10:21.495Z,17.07
2022-09-15T17:12:48.335Z,16.96
2022-09-15T17:15:21.746Z,16.91
2022-09-15T17:17:48.631Z,16.87
2022-09-15T17:20:15.523Z,16.82
2022-09-15T17:22:42.039Z,16.74
2022-09-15T17:25:17.996Z,16.68
2022-09-15T17:27:44.556Z,16.64
2022-09-15T17:30:12.137Z,16.58
2022-09-15T17:32:38.994Z,16.52
2022-09-15T17:35:20.739Z,16.51
2022-09-15T17:37:47.673Z,16.53
2022-09-15T17:40:15.654Z,16.45
2022-09-15T17:42:43.008Z,16.54
2022-09-15T17:45:14.218Z,16.52
2022-09-15T17:47:40.634Z,16.48
2022-09-15T17:50:07.392Z,16.48
2022-09-15T17:52:33.863Z,16.49
2022-09-15T17:55:01.582Z,16.52
2022-09-15T17:57:28.050Z,16.56
2022-09-15T17:59:54.519Z,16.58
2022-09-15T18:02:21.390Z,16.59
2022-09-15T18:04:47.997Z,16.57
2022-09-15T18:07:14.483Z,16.54
2022-09-15T18:09:40.970Z,16.53
2022-09-15T18:12:09.943Z,16.52
2022-09-15T18:14:36.506Z,16.33
2022-09-15T18:17:03.138Z,16.51
2022-09-15T18:19:29.616Z,16.47
2022-09-15T18:21:56.170Z,16.43
2022-09-15T18:24:23.102Z,16.37
2022-09-15T18:26:49.801Z,16.34
2022-09-15T18:29:16.248Z,16.32
2022-09-15T18:31:44.841Z,16.30
2022-09-15T18:34:11.318Z,16.26
2022-09-15T18:36:37.757Z,16.20
2022-09-15T18:39:05.142Z,16.09
2022-09-15T18:41:31.770Z,16.14
2022-09-15T18:43:58.246Z,16.08
2022-09-15T18:46:24.917Z,16.02
2022-09-15T18:48:51.431Z,15.96
2022-09-15T18:51:24.076Z,15.92
2022-09-15T18:53:55.468Z,15.86
2022-09-15T18:56:21.936Z,15.79
2022-09-15T18:58:52.962Z,15.78
2022-09-15T19:01:19.944Z,15.77
2022-09-15T19:03:46.604Z,15.74
2022-09-15T19:06:13.244Z,15.71
2022-09-15T19:08:40.351Z,15.69
2022-09-15T19:11:07.075Z,15.67
2022-09-15T19:13:35.590Z,15.67
2022-09-15T19:16:04.148Z,15.66
2022-09-15T19:18:31.411Z,15.55
2022-09-15T19:21:06.267Z,15.61
2022-09-15T19:23:32.782Z,15.59
2022-09-15T19:26:02.845Z,15.56
2022-09-15T19:28:29.434Z,15.60
2022-09-15T19:30:55.952Z,15.60
2022-09-15T19:33:22.580Z,15.51
2022-09-15T19:35:59.960Z,15.46
2022-09-15T19:38:31.889Z,15.54
2022-09-15T19:41:04.090Z,15.53
2022-09-15T19:43:30.618Z,15.47
2022-09-15T19:45:57.190Z,15.44
2022-09-15T19:48:23.742Z,15.42
2022-09-15T19:50:50.241Z,15.37
2022-09-15T19:53:16.970Z,15.30
2022-09-15T19:55:49.367Z,15.24
2022-09-15T19:58:15.949Z,15.27
2022-09-15T20:00:42.597Z,15.33
2022-09-15T20:03:09.107Z,15.40
2022-09-15T20:05:35.566Z,15.40
2022-09-15T20:08:03.700Z,15.38
2022-09-15T20:10:30.182Z,15.37
2022-09-15T20:12:56.633Z,15.33
2022-09-15T20:15:23.118Z,15.34
2022-09-15T20:17:49.593Z,15.30
2022-09-15T20:20:16.254Z,15.26
2022-09-15T20:22:42.776Z,15.25
2022-09-15T20:25:09.278Z,15.23
2022-09-15T20:27:35.735Z,15.18
2022-09-15T20:30:02.751Z,15.16
2022-09-15T20:32:29.364Z,15.16
2022-09-15T20:34:55.851Z,15.13
2022-09-15T20:37:23.068Z,15.11
2022-09-15T20:39:51.251Z,15.11
2022-09-15T20:42:18.031Z,15.10
2022-09-15T20:44:44.581Z,15.08
2022-09-15T20:47:11.208Z,15.05
2022-09-15T20:49:37.635Z,15.07
2022-09-15T20:52:04.251Z,15.04
2022-09-15T20:54:30.704Z,14.97
2022-09-15T20:56:57.134Z,15.03
2022-09-15T20:59:23.624Z,15.04
2022-09-15T21:01:50.132Z,15.03
2022-09-15T21:04:16.610Z,15.01
2022-09-15T21:06:43.155Z,15.01
2022-09-15T21:09:09.723Z,14.99
2022-09-15T21:11:36.287Z,15.00
2022-09-15T21:14:03.360Z,14.90
2022-09-15T21:16:30.028Z,14.97
2022-09-15T21:18:58.631Z,14.98
2022-09-15T21:21:29.999Z,14.95
2022-09-15T21:24:03.803Z,14.92
2022-09-15T21:26:59.007Z,14.89
2022-09-15T21:29:27.654Z,14.84
2022-09-15T21:31:57.998Z,14.78
2022-09-15T21:34:24.642Z,14.73
2022-09-15T21:36:53.425Z,14.71
2022-09-15T21:39:23.053Z,14.70
2022-09-15T21:41:50.075Z,14.70
2022-09-15T21:44:16.590Z,14.68
2022-09-15T21:46:44.890Z,14.66
2022-09-15T21:49:11.367Z,14.64
2022-09-15T21:51:37.859Z,14.64
2022-09-15T21:54:04.940Z,14.64
2022-09-15T21:56:31.409Z,14.64
2022-09-15T21:58:57.984Z,14.52
2022-09-15T22:01:30.252Z,14.59
2022-09-15T22:04:00.850Z,14.43
2022-09-15T22:06:36.009Z,14.55
2022-09-15T22:09:06.224Z,14.52
2022-09-15T22:11:33.428Z,14.51
2022-09-15T22:14:01.931Z,14.56
2022-09-15T22:16:28.883Z,14.52
2022-09-15T22:18:55.555Z,14.62
2022-09-15T22:21:27.393Z,14.65
2022-09-15T22:23:56.315Z,14.64
2022-09-15T22:26:26.183Z,14.64
2022-09-15T22:28:53.624Z,14.59
2022-09-15T22:31:21.700Z,14.63
2022-09-15T22:33:48.224Z,14.68
2022-09-15T22:36:17.750Z,14.70
2022-09-15T22:38:44.766Z,14.70
2022-09-15T22:41:13.445Z,14.71
2022-09-15T22:43:41.874Z,14.71
2022-09-15T22:46:09.117Z,14.62
2022-09-15T22:48:40.936Z,14.72
2022-09-15T22:51:10.057Z,14.72
2022-09-15T22:53:36.628Z,14.73
2022-09-15T22:56:06.849Z,14.71
2022-09-15T22:58:34.597Z,14.69
2022-09-15T23:01:08.575Z,14.67
2022-09-15T23:03:36.048Z,14.61
2022-09-15T23:06:03.230Z,14.67
2022-09-15T23:08:30.342Z,14.69
2022-09-15T23:11:05.960Z,14.68
2022-09-15T23:13:33.170Z,14.70
2022-09-15T23:15:59.949Z,14.67
2022-09-15T23:18:27.267Z,14.76
2022-09-15T23:20:58.901Z,14.78
2022-09-15T23:23:25.954Z,14.78
2022-09-15T23:25:52.823Z,14.78
2022-09-15T23:28:19.438Z,14.77
2022-09-15T23:30:46.461Z,14.82
2022-09-15T23:33:12.950Z,14.83
2022-09-15T23:35:39.422Z,14.85
2022-09-15T23:38:06.117Z,14.75
2022-09-15T23:40:33.081Z,14.87
2022-09-15T23:42:59.632Z,14.88
2022-09-15T23:45:26.101Z,14.89
2022-09-15T23:47:52.579Z,14.85
2022-09-15T23:50:19.031Z,14.91
2022-09-15T23:52:45.486Z,14.91
2022-09-15T23:55:11.937Z,14.92
2022-09-15T23:57:38.385Z,14.91
